Time,TemperatureF,DewpointF,PressureIn,WindDirection,WindDirectionDegrees,WindSpeedMPH,WindSpeedGustMPH,Humidity,HourlyPrecipIn,Conditions,Clouds,dailyrainin,SoftwareType,DateUTC
2013-08-21 00:06:00,72.4,67.0,29.92,South,170,0.0,4.0,82,0.00,,,0.00,weatherlink.com 1.10,2013-08-21 05:06:00,
2013-08-21 00:21:00,72.4,67.0,29.92,South,170,0.0,2.0,82,0.00,,,0.00,weatherlink.com 1.10,2013-08-21 05:21:00,
2013-08-21 00:36:00,72.5,66.0,29.92,South,176,0.0,4.0,81,0.00,,,0.00,weatherlink.com 1.10,2013-08-21 05:36:00,
2013-08-21 00:52:00,72.7,67.0,29.92,South,173,1.0,3.0,81,0.00,,,0.00,weatherlink.com 1.10,2013-08-21 05:52:00,
2013-08-21 01:07:00,72.9,67.0,29.93,South,179,1.0,4.0,81,0.00,,,0.00,weatherlink.com 1.10,2013-08-21 06:07:00,
2013-08-21 01:22:00,72.9,67.0,29.93,South,186,1.0,5.0,81,0.00,,,0.00,weatherlink.com 1.10,2013-08-21 06:22:00,
2013-08-21 01:37:00,72.7,67.0,29.93,South,182,0.0,3.0,81,0.00,,,0.00,weatherlink.com 1.10,2013-08-21 06:37:00,
2013-08-21 01:52:00,72.5,67.0,29.92,South,181,0.0,3.0,82,0.00,,,0.00,weatherlink.com 1.10,2013-08-21 06:52:00,
2013-08-21 02:07:00,72.4,67.0,29.92,South,181,1.0,6.0,82,0.00,,,0.00,weatherlink.com 1.10,2013-08-21 07:07:00,
2013-08-21 02:22:00,72.4,67.0,29.92,South,187,0.0,6.0,82,0.00,,,0.00,weatherlink.com 1.10,2013-08-21 07:22:00,
2013-08-21 02:37:00,72.4,67.0,29.92,South,190,3.0,7.0,83,0.00,,,0.00,weatherlink.com 1.10,2013-08-21 07:37:00,
2013-08-21 02:52:00,72.5,67.0,29.92,SSW,197,3.0,8.0,82,0.00,,,0.00,weatherlink.com 1.10,2013-08-21 07:52:00,
2013-08-21 03:07:00,72.7,67.0,29.92,SSW,194,0.0,7.0,82,0.00,,,0.00,weatherlink.com 1.10,2013-08-21 08:07:00,
2013-08-21 03:22:00,72.7,67.0,29.91,SSW,192,0.0,7.0,82,0.00,,,0.00,weatherlink.com 1.10,2013-08-21 08:22:00,
2013-08-21 03:37:00,72.6,67.0,29.92,South,190,0.0,6.0,82,0.00,,,0.00,weatherlink.com 1.10,2013-08-21 08:37:00,
2013-08-21 03:52:00,72.5,67.0,29.92,South,186,0.0,8.0,83,0.00,,,0.00,weatherlink.com 1.10,2013-08-21 08:52:00,
2013-08-21 04:07:00,72.5,67.0,29.92,South,185,0.0,7.0,83,0.00,,,0.00,weatherlink.com 1.10,2013-08-21 09:07:00,
2013-08-21 04:22:00,72.3,67.0,29.93,South,186,0.0,7.0,83,0.00,,,0.00,weatherlink.com 1.10,2013-08-21 09:22:00,
2013-08-21 04:37:00,72.0,67.0,29.92,South,185,0.0,3.0,83,0.00,,,0.00,weatherlink.com 1.10,2013-08-21 09:37:00,
2013-08-21 04:52:00,71.8,66.0,29.92,South,186,0.0,8.0,83,0.00,,,0.00,weatherlink.com 1.10,2013-08-21 09:52:00,
2013-08-21 05:07:00,71.4,66.0,29.92,South,185,0.0,5.0,84,0.00,,,0.00,weatherlink.com 1.10,2013-08-21 10:07:00,
2013-08-21 05:22:00,71.3,67.0,29.93,South,185,0.0,3.0,85,0.00,,,0.00,weatherlink.com 1.10,2013-08-21 10:22:00,
2013-08-21 05:37:00,71.1,66.0,29.93,South,186,0.0,5.0,85,0.00,,,0.00,weatherlink.com 1.10,2013-08-21 10:37:00,
2013-08-21 05:52:00,70.9,66.0,29.93,South,186,0.0,6.0,85,0.00,,,0.00,weatherlink.com 1.10,2013-08-21 10:52:00,
2013-08-21 06:07:00,70.7,66.0,29.93,South,185,0.0,6.0,86,0.00,,,0.00,weatherlink.com 1.10,2013-08-21 11:07:00,
2013-08-21 06:22:00,70.7,66.0,29.93,South,186,3.0,5.0,86,0.00,,,0.00,weatherlink.com 1.10,2013-08-21 11:22:00,
2013-08-21 06:37:00,70.7,66.0,29.94,South,186,0.0,5.0,86,0.00,,,0.00,weatherlink.com 1.10,2013-08-21 11:37:00,
2013-08-21 06:52:00,70.7,66.0,29.94,South,186,0.0,5.0,86,0.00,,,0.00,weatherlink.com 1.10,2013-08-21 11:52:00,
2013-08-21 07:07:00,70.7,66.0,29.95,South,187,0.0,5.0,86,0.00,,,0.00,weatherlink.com 1.10,2013-08-21 12:07:00,
2013-08-21 07:22:00,70.9,67.0,29.95,South,187,0.0,6.0,86,0.00,,,0.00,weatherlink.com 1.10,2013-08-21 12:22:00,
2013-08-21 07:37:00,71.2,67.0,29.95,South,188,2.0,10.0,86,0.00,,,0.00,weatherlink.com 1.10,2013-08-21 12:37:00,
2013-08-21 07:52:00,71.8,67.0,29.95,SSW,192,5.0,8.0,85,0.00,,,0.00,weatherlink.com 1.10,2013-08-21 12:52:00,
2013-08-21 08:07:00,72.5,67.0,29.95,SSW,202,0.0,11.0,84,0.00,,,0.00,weatherlink.com 1.10,2013-08-21 13:07:00,
2013-08-21 08:22:00,73.6,68.0,29.95,SSW,195,0.0,8.0,82,0.00,,,0.00,weatherlink.com 1.10,2013-08-21 13:22:00,
2013-08-21 08:37:00,76.0,69.0,29.95,SW,218,2.0,13.0,79,0.00,,,0.00,weatherlink.com 1.10,2013-08-21 13:37:00,
2013-08-21 08:52:00,77.0,69.0,29.95,SW,232,8.0,12.0,76,0.00,,,0.00,weatherlink.com 1.10,2013-08-21 13:52:00,
2013-08-21 09:07:00,78.4,69.0,29.95,SSW,211,2.0,12.0,73,0.00,,,0.00,weatherlink.com 1.10,2013-08-21 14:07:00,
2013-08-21 09:22:00,79.7,71.0,29.95,SW,216,0.0,17.0,74,0.00,,,0.00,weatherlink.com 1.10,2013-08-21 14:22:00,
2013-08-21 09:37:00,80.7,71.0,29.94,SSW,211,0.0,16.0,71,0.00,,,0.00,weatherlink.com 1.10,2013-08-21 14:37:00,
2013-08-21 09:52:00,81.9,70.0,29.94,South,191,3.0,12.0,68,0.00,,,0.00,weatherlink.com 1.10,2013-08-21 14:52:00,
2013-08-21 10:07:00,83.0,70.0,29.95,SW,236,0.0,11.0,66,0.00,,,0.00,weatherlink.com 1.10,2013-08-21 15:07:00,
2013-08-21 10:22:00,83.2,72.0,29.95,SW,229,0.0,14.0,68,0.00,,,0.00,weatherlink.com 1.10,2013-08-21 15:22:00,
2013-08-21 10:38:00,84.5,73.0,29.95,SSW,194,3.0,11.0,68,0.00,,,0.00,weatherlink.com 1.10,2013-08-21 15:38:00,
2013-08-21 10:53:00,84.5,71.0,29.94,SSW,211,7.0,19.0,64,0.00,,,0.00,weatherlink.com 1.10,2013-08-21 15:53:00,
2013-08-21 11:08:00,85.5,71.0,29.94,WSW,244,14.0,21.0,62,0.00,,,0.00,weatherlink.com 1.10,2013-08-21 16:08:00,
2013-08-21 11:23:00,85.9,71.0,29.95,SW,232,7.0,18.0,61,0.00,,,0.00,weatherlink.com 1.10,2013-08-21 16:23:00,
2013-08-21 11:38:00,86.7,72.0,29.94,SW,223,3.0,17.0,62,0.00,,,0.00,weatherlink.com 1.10,2013-08-21 16:38:00,
2013-08-21 11:53:00,88.0,71.0,29.94,SW,218,8.0,17.0,58,0.00,,,0.00,weatherlink.com 1.10,2013-08-21 16:53:00,
2013-08-21 12:08:00,88.4,70.0,29.94,SW,223,11.0,21.0,55,0.00,,,0.00,weatherlink.com 1.10,2013-08-21 17:08:00,
2013-08-21 12:23:00,87.5,70.0,29.94,WSW,240,2.0,15.0,57,0.00,,,0.00,weatherlink.com 1.10,2013-08-21 17:23:00,
2013-08-21 12:38:00,89.7,72.0,29.94,SSW,200,7.0,12.0,57,0.00,,,0.00,weatherlink.com 1.10,2013-08-21 17:38:00,
2013-08-21 12:53:00,90.0,72.0,29.94,South,191,6.0,12.0,55,0.00,,,0.00,weatherlink.com 1.10,2013-08-21 17:53:00,
2013-08-21 13:08:00,90.8,72.0,29.93,SSW,192,11.0,17.0,54,0.00,,,0.00,weatherlink.com 1.10,2013-08-21 18:08:00,
2013-08-21 13:23:00,90.9,71.0,29.93,SSE,161,0.0,15.0,53,0.00,,,0.00,weatherlink.com 1.10,2013-08-21 18:23:00,
2013-08-21 13:38:00,91.3,71.0,29.93,South,186,2.0,18.0,51,0.00,,,0.00,weatherlink.com 1.10,2013-08-21 18:38:00,
2013-08-21 13:53:00,91.3,70.0,29.93,South,188,0.0,21.0,50,0.00,,,0.00,weatherlink.com 1.10,2013-08-21 18:53:00,
2013-08-21 14:08:00,91.4,70.0,29.93,SW,234,9.0,19.0,49,0.00,,,0.00,weatherlink.com 1.10,2013-08-21 19:08:00,
2013-08-21 14:23:00,91.9,70.0,29.93,SW,224,1.0,18.0,49,0.00,,,0.00,weatherlink.com 1.10,2013-08-21 19:23:00,
2013-08-21 14:38:00,92.0,70.0,29.92,SSW,209,0.0,16.0,49,0.00,,,0.00,weatherlink.com 1.10,2013-08-21 19:38:00,
2013-08-21 14:53:00,92.2,70.0,29.92,South,188,0.0,12.0,49,0.00,,,0.00,weatherlink.com 1.10,2013-08-21 19:53:00,
2013-08-21 15:08:00,93.0,71.0,29.92,SSW,202,6.0,18.0,48,0.00,,,0.00,weatherlink.com 1.10,2013-08-21 20:08:00,
2013-08-21 15:23:00,92.6,70.0,29.92,SW,234,5.0,16.0,48,0.00,,,0.00,weatherlink.com 1.10,2013-08-21 20:23:00,
2013-08-21 15:38:00,92.1,71.0,29.92,SSW,200,0.0,6.0,51,0.00,,,0.00,weatherlink.com 1.10,2013-08-21 20:38:00,
2013-08-21 15:53:00,91.4,70.0,29.92,South,189,1.0,7.0,50,0.00,,,0.00,weatherlink.com 1.10,2013-08-21 20:53:00,
2013-08-21 16:08:00,91.6,72.0,29.91,South,184,0.0,6.0,53,0.00,,,0.00,weatherlink.com 1.10,2013-08-21 21:08:00,
2013-08-21 16:23:00,91.3,72.0,29.91,SW,216,0.0,12.0,53,0.00,,,0.00,weatherlink.com 1.10,2013-08-21 21:23:00,
2013-08-21 16:38:00,91.5,71.0,29.91,SW,234,0.0,8.0,52,0.00,,,0.00,weatherlink.com 1.10,2013-08-21 21:38:00,
2013-08-21 16:53:00,90.7,72.0,29.91,SW,216,0.0,7.0,54,0.00,,,0.00,weatherlink.com 1.10,2013-08-21 21:53:00,
2013-08-21 17:08:00,90.6,72.0,29.91,SSW,194,0.0,7.0,55,0.00,,,0.00,weatherlink.com 1.10,2013-08-21 22:08:00,
2013-08-21 17:23:00,90.8,71.0,29.91,SSW,213,0.0,7.0,53,0.00,,,0.00,weatherlink.com 1.10,2013-08-21 22:23:00,
2013-08-21 17:38:00,90.6,71.0,29.91,SSW,198,3.0,8.0,52,0.00,,,0.00,weatherlink.com 1.10,2013-08-21 22:38:00,
2013-08-21 17:53:00,89.9,71.0,29.90,South,188,0.0,8.0,54,0.00,,,0.00,weatherlink.com 1.10,2013-08-21 22:53:00,
2013-08-21 18:08:00,89.1,71.0,29.90,South,190,0.0,2.0,56,0.00,,,0.00,weatherlink.com 1.10,2013-08-21 23:08:00,
2013-08-21 18:23:00,88.2,72.0,29.89,South,191,0.0,3.0,58,0.00,,,0.00,weatherlink.com 1.10,2013-08-21 23:23:00,
2013-08-21 18:38:00,87.1,71.0,29.90,South,191,0.0,3.0,59,0.00,,,0.00,weatherlink.com 1.10,2013-08-21 23:38:00,
2013-08-21 18:53:00,86.0,72.0,29.89,South,191,0.0,0.0,63,0.00,,,0.00,weatherlink.com 1.10,2013-08-21 23:53:00,
2013-08-21 19:08:00,85.2,72.0,29.89,South,191,0.0,0.0,64,0.00,,,0.00,weatherlink.com 1.10,2013-08-22 00:08:00,
2013-08-21 19:23:00,84.7,72.0,29.90,South,191,0.0,0.0,66,0.00,,,0.00,weatherlink.com 1.10,2013-08-22 00:23:00,
2013-08-21 19:38:00,84.1,72.0,29.90,South,191,0.0,0.0,67,0.00,,,0.00,weatherlink.com 1.10,2013-08-22 00:38:00,
2013-08-21 19:53:00,83.3,72.0,29.90,South,191,0.0,0.0,68,0.00,,,0.00,weatherlink.com 1.10,2013-08-22 00:53:00,
2013-08-21 20:08:00,82.1,71.0,29.90,South,191,0.0,0.0,70,0.00,,,0.00,weatherlink.com 1.10,2013-08-22 01:08:00,
2013-08-21 20:23:00,81.0,70.0,29.90,South,191,0.0,0.0,70,0.00,,,0.00,weatherlink.com 1.10,2013-08-22 01:23:00,
2013-08-21 20:38:00,80.1,70.0,29.90,South,191,0.0,0.0,71,0.00,,,0.00,weatherlink.com 1.10,2013-08-22 01:38:00,
2013-08-21 20:53:00,79.3,70.0,29.91,South,191,0.0,0.0,73,0.00,,,0.00,weatherlink.com 1.10,2013-08-22 01:53:00,
2013-08-21 21:08:00,78.4,70.0,29.91,South,191,0.0,4.0,75,0.00,,,0.00,weatherlink.com 1.10,2013-08-22 02:08:00,
2013-08-21 21:23:00,77.7,69.0,29.92,South,190,0.0,3.0,75,0.00,,,0.00,weatherlink.com 1.10,2013-08-22 02:23:00,
2013-08-21 21:38:00,77.3,69.0,29.92,South,191,0.0,3.0,75,0.00,,,0.00,weatherlink.com 1.10,2013-08-22 02:38:00,
2013-08-21 21:53:00,77.1,69.0,29.92,South,191,0.0,3.0,76,0.00,,,0.00,weatherlink.com 1.10,2013-08-22 02:53:00,
2013-08-21 22:08:00,76.9,68.0,29.93,South,191,0.0,3.0,75,0.00,,,0.00,weatherlink.com 1.10,2013-08-22 03:08:00,
2013-08-21 22:23:00,76.6,69.0,29.93,South,191,0.0,4.0,76,0.00,,,0.00,weatherlink.com 1.10,2013-08-22 03:23:00,
2013-08-21 22:38:00,76.3,68.0,29.93,South,191,0.0,0.0,76,0.00,,,0.00,weatherlink.com 1.10,2013-08-22 03:38:00,
2013-08-21 22:53:00,76.0,68.0,29.94,South,191,0.0,1.0,76,0.00,,,0.00,weatherlink.com 1.10,2013-08-22 03:53:00,
2013-08-21 23:08:00,75.8,68.0,29.93,South,191,0.0,3.0,77,0.00,,,0.00,weatherlink.com 1.10,2013-08-22 04:08:00,
2013-08-21 23:23:00,75.4,68.0,29.93,South,191,0.0,5.0,77,0.00,,,0.00,weatherlink.com 1.10,2013-08-22 04:23:00,
2013-08-21 23:38:00,75.1,68.0,29.93,South,191,0.0,0.0,78,0.00,,,0.00,weatherlink.com 1.10,2013-08-22 04:38:00,
2013-08-21 23:53:00,74.6,68.0,29.93,South,191,0.0,0.0,79,0.00,,,0.00,weatherlink.com 1.10,2013-08-22 04:53:00,